Time;durP1;ratioP1;P1;durP2;ratioP2;P2;SDS_P1;SDS_P2;PMS_P1;PMS_P2;Temp;Humidity;BMP_temperature;BMP_pressure;BME280_temperature;BME280_humidity;BME280_pressure;Samples;Min_cycle;Max_cycle;Signal;HPM_P1;HPM_P2
2022/12/23 00:01:07;;;;;;;20.90;9.88;;;5.40;99.90;;;;;;5100574;28;20538;-69
2022/12/23 00:03:33;;;;;;;15.05;7.68;;;5.40;99.90;;;;;;5105012;28;20036;-69
2022/12/23 00:05:59;;;;;;;19.17;9.73;;;5.40;99.90;;;;;;5102025;28;20540;-69
2022/12/23 00:08:25;;;;;;;17.10;9.05;;;5.40;99.90;;;;;;5108206;28;20114;-69
2022/12/23 00:10:55;;;;;;;22.60;10.18;;;5.50;99.90;;;;;;5105545;28;20092;-69
2022/12/23 00:16:06;;;;;;;22.67;10.05;;;5.50;99.90;;;;;;5081391;28;20069;-69
2022/12/23 00:18:32;;;;;;;27.17;10.80;;;5.50;99.90;;;;;;5108806;28;20494;-69
2022/12/23 00:21:02;;;;;;;26.83;10.52;;;5.50;99.90;;;;;;5093972;28;20027;-69
2022/12/23 00:23:30;;;;;;;22.60;10.75;;;5.50;99.90;;;;;;5090038;28;20101;-69
2022/12/23 00:25:55;;;;;;;23.33;10.50;;;5.50;99.90;;;;;;5105562;28;20071;-70
2022/12/23 00:28:24;;;;;;;20.02;10.10;;;5.60;99.90;;;;;;5092589;28;20032;-69
2022/12/23 00:30:57;;;;;;;21.60;11.05;;;5.60;99.90;;;;;;5092188;28;20188;-69
2022/12/23 00:33:28;;;;;;;16.55;8.27;;;5.50;99.90;;;;;;5068909;28;20043;-69
2022/12/23 00:35:54;;;;;;;18.20;9.23;;;5.60;99.90;;;;;;5085797;28;20531;-69
2022/12/23 00:42:52;;;;;;;18.77;9.07;;;5.50;99.90;;;;;;5099891;28;20031;-69
2022/12/23 00:44:00;;;;;;;16.42;8.68;;;5.60;99.90;;;;;;5090533;28;20412;-70
2022/12/23 00:46:26;;;;;;;14.90;8.35;;;5.60;99.90;;;;;;5106630;28;20031;-69
2022/12/23 00:51:36;;;;;;;19.70;9.07;;;5.60;99.90;;;;;;5097115;28;20573;-69
2022/12/23 00:54:02;;;;;;;16.67;8.32;;;5.60;99.90;;;;;;5107285;28;20028;-70
2022/12/23 00:56:27;;;;;;;19.15;8.70;;;5.60;99.90;;;;;;5096922;28;20031;-70
2022/12/23 00:58:53;;;;;;;16.70;8.00;;;5.60;99.90;;;;;;5088173;28;20038;-69
2022/12/23 01:06:47;;;;;;;14.80;7.05;;;5.60;99.90;;;;;;5088359;28;20600;-69
2022/12/23 01:09:13;;;;;;;13.18;8.07;;;5.60;99.90;;;;;;5088711;28;20126;-70
2022/12/23 01:11:39;;;;;;;20.00;8.57;;;5.60;99.90;;;;;;5091836;28;20534;-70
2022/12/23 01:14:04;;;;;;;16.00;8.35;;;5.60;99.90;;;;;;5093047;28;20110;-70
2022/12/23 01:16:30;;;;;;;14.45;7.57;;;5.60;99.90;;;;;;5101757;28;20028;-62
2022/12/23 01:18:55;;;;;;;14.23;7.55;;;5.60;99.90;;;;;;5107533;28;20545;-65
2022/12/23 01:21:21;;;;;;;17.15;8.80;;;5.60;99.90;;;;;;5105940;28;20343;-65
2022/12/23 01:23:46;;;;;;;17.75;8.27;;;5.60;99.90;;;;;;5088938;28;20035;-64
2022/12/23 01:26:12;;;;;;;15.95;7.88;;;5.60;99.90;;;;;;5099451;28;20067;-64
2022/12/23 01:28:37;;;;;;;22.20;8.38;;;5.60;99.90;;;;;;5104893;28;20035;-64
2022/12/23 01:31:04;;;;;;;13.73;8.13;;;5.50;99.90;;;;;;5106872;28;20027;-64
2022/12/23 01:33:31;;;;;;;16.30;7.95;;;5.60;99.90;;;;;;5086169;27;20116;-63
2022/12/23 01:36:01;;;;;;;15.07;8.20;;;5.60;99.90;;;;;;5104781;28;20487;-65
2022/12/23 01:38:28;;;;;;;15.60;7.50;;;5.60;99.90;;;;;;5107918;28;20035;-65
2022/12/23 01:40:53;;;;;;;13.68;6.97;;;5.60;99.90;;;;;;5091336;28;20042;-64
2022/12/23 01:43:19;;;;;;;19.25;8.65;;;5.60;99.90;;;;;;5094387;28;20020;-65
2022/12/23 01:45:45;;;;;;;13.25;6.75;;;5.60;99.90;;;;;;5105368;28;20035;-64
2022/12/23 01:48:15;;;;;;;11.18;6.53;;;5.70;99.90;;;;;;5108054;28;20735;-65
2022/12/23 01:50:45;;;;;;;14.82;7.55;;;5.70;99.90;;;;;;5071990;28;20023;-64
2022/12/23 01:53:29;;;;;;;14.63;7.60;;;5.70;99.90;;;;;;5092577;28;20028;-65
2022/12/23 01:56:22;;;;;;;14.95;7.15;;;5.70;99.90;;;;;;5075891;28;20035;-65
2022/12/23 01:59:01;;;;;;;11.75;6.47;;;5.70;99.90;;;;;;5102341;28;20169;-64
2022/12/23 02:04:16;;;;;;;12.25;6.35;;;5.70;99.90;;;;;;5067115;28;20102;-65
2022/12/23 02:09:29;;;;;;;;;;;5.70;99.90;;;;;;5067437;28;20109;-65
2022/12/23 02:12:25;;;;;;;10.25;5.97;;;5.70;99.90;;;;;;5093025;28;19954;-65
2022/12/23 02:18:17;;;;;;;10.23;5.50;;;5.70;99.90;;;;;;5104777;28;20055;-70
2022/12/23 02:20:51;;;;;;;13.15;7.18;;;5.70;99.90;;;;;;5067157;28;20040;-69
2022/12/23 02:23:52;;;;;;;13.93;7.22;;;5.70;99.90;;;;;;5087059;28;20054;-69
2022/12/23 02:26:51;;;;;;;12.07;6.30;;;5.70;99.90;;;;;;5055850;28;20051;-69
2022/12/23 02:29:38;;;;;;;14.70;7.35;;;5.70;99.90;;;;;;5107546;28;20027;-69
2022/12/23 02:32:19;;;;;;;17.75;7.32;;;5.70;99.90;;;;;;5085374;28;20073;-69
2022/12/23 02:35:27;;;;;;;35.80;8.68;;;5.70;99.90;;;;;;5066739;28;20032;-69
2022/12/23 02:38:19;;;;;;;19.63;7.20;;;5.70;99.90;;;;;;5076377;28;20059;-69
2022/12/23 02:41:17;;;;;;;12.57;6.53;;;5.70;99.90;;;;;;5070907;28;20047;-69
2022/12/23 02:43:54;;;;;;;14.40;6.63;;;5.70;99.90;;;;;;5087991;28;20032;-69
2022/12/23 02:46:23;;;;;;;12.52;6.25;;;5.60;99.90;;;;;;5082036;28;20047;-69
2022/12/23 02:49:02;;;;;;;14.57;7.47;;;5.60;99.90;;;;;;5086727;28;20054;-69
2022/12/23 02:51:31;;;;;;;13.48;6.20;;;5.60;99.90;;;;;;5076874;28;20036;-69
2022/12/23 02:54:01;;;;;;;19.95;7.53;;;5.70;99.90;;;;;;5098176;28;20135;-70
2022/12/23 02:56:30;;;;;;;17.25;6.78;;;5.70;99.90;;;;;;5090776;28;20024;-70
2022/12/23 02:59:00;;;;;;;17.77;7.30;;;5.60;99.90;;;;;;5108775;28;20427;-70
2022/12/23 03:01:30;;;;;;;49.25;8.60;;;5.70;99.90;;;;;;5073204;28;20023;-70
2022/12/23 03:03:55;;;;;;;20.20;7.80;;;5.70;99.90;;;;;;5108968;28;20471;-70
2022/12/23 03:06:25;;;;;;;17.20;7.43;;;5.70;99.90;;;;;;5083184;28;20027;-70
2022/12/23 03:08:54;;;;;;;15.13;7.40;;;5.70;99.90;;;;;;5109008;28;20031;-70
2022/12/23 03:11:20;;;;;;;13.00;7.78;;;5.70;99.90;;;;;;5090333;28;20028;-70
2022/12/23 03:14:12;;;;;;;15.18;7.35;;;5.70;99.90;;;;;;5109479;28;20139;-70
2022/12/23 03:16:54;;;;;;;14.98;7.78;;;5.70;99.90;;;;;;5078622;28;20038;-70
2022/12/23 03:19:25;;;;;;;18.13;9.18;;;5.70;99.90;;;;;;5109026;28;20016;-70
2022/12/23 03:22:08;;;;;;;18.08;8.90;;;5.70;99.90;;;;;;5082001;28;20032;-70
2022/12/23 03:24:46;;;;;;;12.73;7.20;;;5.70;99.90;;;;;;5071068;28;20044;-70
2022/12/23 03:27:23;;;;;;;18.52;7.90;;;5.80;99.90;;;;;;5105620;28;20035;-70
2022/12/23 03:29:51;;;;;;;12.13;7.30;;;5.80;99.90;;;;;;5068294;28;20284;-70
2022/12/23 03:32:19;;;;;;;15.75;8.30;;;5.80;99.90;;;;;;5106249;28;20449;-70
2022/12/23 03:34:50;;;;;;;12.10;7.00;;;5.80;99.90;;;;;;5092632;28;20039;-71
2022/12/23 03:37:19;;;;;;;12.40;6.70;;;5.80;99.90;;;;;;5086958;28;20031;-70
2022/12/23 03:39:51;;;;;;;15.93;7.47;;;5.80;99.90;;;;;;5112695;28;20031;-70
2022/12/23 03:42:23;;;;;;;14.13;8.02;;;5.80;99.90;;;;;;5087232;28;20487;-70
2022/12/23 03:44:51;;;;;;;19.90;7.85;;;5.80;99.90;;;;;;5112723;28;20032;-70
2022/12/23 03:47:33;;;;;;;15.52;8.75;;;5.80;99.90;;;;;;5089482;28;20119;-70
2022/12/23 03:50:04;;;;;;;14.82;7.90;;;5.90;99.90;;;;;;5072087;28;20028;-70
2022/12/23 03:52:45;;;;;;;16.95;8.63;;;5.90;99.90;;;;;;5090682;28;20036;-70
2022/12/23 03:55:17;;;;;;;16.98;8.00;;;5.90;99.90;;;;;;5072015;28;20039;-70
2022/12/23 03:57:50;;;;;;;18.73;8.93;;;5.90;99.90;;;;;;5071791;28;20039;-70
2022/12/23 04:00:16;;;;;;;17.52;7.80;;;5.90;99.90;;;;;;5070614;28;20081;-70
2022/12/23 04:02:45;;;;;;;18.70;8.82;;;5.90;99.90;;;;;;5110299;28;20031;-70
2022/12/23 04:05:28;;;;;;;18.35;8.40;;;6.00;99.90;;;;;;5089162;28;20020;-70
2022/12/23 04:07:57;;;;;;;16.65;7.93;;;6.00;99.90;;;;;;5092124;28;20386;-69
2022/12/23 04:10:23;;;;;;;19.38;8.65;;;6.10;99.90;;;;;;5110437;28;20031;-70
2022/12/23 04:12:49;;;;;;;22.27;9.15;;;6.00;99.90;;;;;;5112603;28;20023;-70
2022/12/23 04:15:23;;;;;;;15.10;7.70;;;6.10;99.90;;;;;;5091847;28;20028;-70
2022/12/23 04:17:49;;;;;;;16.33;7.93;;;6.10;99.90;;;;;;5112371;28;20024;-70
2022/12/23 04:20:15;;;;;;;17.02;8.27;;;6.10;99.90;;;;;;5091570;28;20062;-70
2022/12/23 04:22:42;;;;;;;16.15;8.93;;;6.10;99.90;;;;;;5112471;28;20051;-70
2022/12/23 04:25:09;;;;;;;19.98;10.27;;;6.10;99.90;;;;;;5095642;28;20092;-69
2022/12/23 04:27:34;;;;;;;24.23;11.65;;;6.10;99.90;;;;;;5090710;28;20028;-69
2022/12/23 04:30:00;;;;;;;20.52;9.98;;;6.10;99.90;;;;;;5110276;28;20024;-69
2022/12/23 04:32:25;;;;;;;24.13;10.88;;;6.10;99.90;;;;;;5089371;28;20476;-69
2022/12/23 04:34:51;;;;;;;23.63;10.15;;;6.10;99.90;;;;;;5108936;28;20027;-71
2022/12/23 04:37:16;;;;;;;25.92;11.30;;;6.10;99.90;;;;;;5089054;28;20032;-70
2022/12/23 04:39:42;;;;;;;24.45;11.38;;;6.10;99.90;;;;;;5109818;28;20032;-70
2022/12/23 04:42:07;;;;;;;23.02;11.35;;;6.20;99.90;;;;;;5087922;28;20028;-69
2022/12/23 04:44:33;;;;;;;23.05;10.60;;;6.20;99.90;;;;;;5109520;28;20160;-69
2022/12/23 04:46:59;;;;;;;23.55;11.32;;;6.20;99.90;;;;;;5089057;28;20528;-69
2022/12/23 04:49:24;;;;;;;21.33;10.30;;;6.20;99.90;;;;;;5109972;28;20085;-70
2022/12/23 04:51:50;;;;;;;26.50;11.60;;;6.20;99.90;;;;;;5088957;28;20173;-69
2022/12/23 04:54:15;;;;;;;24.65;10.95;;;6.20;99.90;;;;;;5089073;28;20043;-70
2022/12/23 04:56:41;;;;;;;21.23;9.93;;;6.30;99.90;;;;;;5097238;28;20043;-70
2022/12/23 04:59:06;;;;;;;20.27;9.70;;;6.30;99.90;;;;;;5088390;28;20034;-71
2022/12/23 05:01:32;;;;;;;18.65;8.43;;;6.30;99.90;;;;;;5109837;28;20065;-70
2022/12/23 05:03:57;;;;;;;23.25;9.18;;;6.40;99.90;;;;;;5088798;28;20042;-69
2022/12/23 05:06:23;;;;;;;20.20;8.32;;;6.40;99.90;;;;;;5103922;28;20031;-68
2022/12/23 05:08:48;;;;;;;21.08;9.05;;;6.30;99.90;;;;;;5087137;28;20020;-69
2022/12/23 05:11:14;;;;;;;16.30;7.80;;;6.30;99.90;;;;;;5109536;28;20035;-69
2022/12/23 05:13:39;;;;;;;20.27;8.63;;;6.40;99.90;;;;;;5087346;28;20614;-69
2022/12/23 05:16:05;;;;;;;16.13;8.25;;;6.40;99.90;;;;;;5109245;28;20024;-68
2022/12/23 05:18:30;;;;;;;20.52;9.23;;;6.40;99.90;;;;;;5099212;28;20488;-69
2022/12/23 05:20:56;;;;;;;22.08;7.72;;;6.40;99.90;;;;;;5090326;28;20081;-69
2022/12/23 05:23:21;;;;;;;20.90;9.15;;;6.40;99.90;;;;;;5107371;28;20115;-69
2022/12/23 05:25:51;;;;;;;19.77;8.90;;;6.30;99.90;;;;;;5054893;28;1015663;-69
2022/12/23 05:28:17;;;;;;;17.92;8.77;;;6.40;99.90;;;;;;5108963;28;20031;-69
2022/12/23 05:30:43;;;;;;;18.75;8.00;;;6.40;99.90;;;;;;5091104;28;20039;-69
2022/12/23 05:33:08;;;;;;;18.15;7.38;;;6.40;99.90;;;;;;5108347;28;20043;-69
2022/12/23 05:35:34;;;;;;;17.90;8.52;;;6.40;99.90;;;;;;5090967;28;20104;-68
2022/12/23 05:38:02;;;;;;;14.73;7.45;;;6.40;99.90;;;;;;5108213;28;20043;-69
2022/12/23 05:40:28;;;;;;;17.95;7.10;;;6.40;99.90;;;;;;5109625;28;20027;-69
2022/12/23 05:42:53;;;;;;;14.10;7.43;;;6.50;99.90;;;;;;5094633;28;20028;-69
2022/12/23 05:45:19;;;;;;;17.08;8.18;;;6.40;99.90;;;;;;5109580;28;20394;-69
2022/12/23 05:47:45;;;;;;;14.43;7.00;;;6.50;99.90;;;;;;5092884;28;20490;-71
2022/12/23 05:50:11;;;;;;;13.98;7.10;;;6.50;99.90;;;;;;5110743;28;20030;-69
2022/12/23 05:52:36;;;;;;;14.13;7.18;;;6.50;99.90;;;;;;5092320;28;20050;-68
2022/12/23 05:55:02;;;;;;;13.45;6.57;;;6.40;99.90;;;;;;5088051;28;20598;-69
2022/12/23 05:57:28;;;;;;;15.35;6.40;;;6.50;99.90;;;;;;5107261;28;20041;-69
2022/12/23 05:59:53;;;;;;;13.65;6.35;;;6.50;99.90;;;;;;5110268;28;20374;-69
2022/12/23 06:02:20;;;;;;;14.88;6.82;;;6.50;99.90;;;;;;5090252;28;20028;-69
2022/12/23 06:04:46;;;;;;;14.25;8.32;;;6.40;99.90;;;;;;5088693;28;20107;-59
2022/12/23 06:07:12;;;;;;;13.70;6.35;;;6.50;99.90;;;;;;5109981;28;20045;-72
2022/12/23 06:09:37;;;;;;;14.23;6.75;;;6.50;99.90;;;;;;5088289;28;20024;-71
2022/12/23 06:12:03;;;;;;;12.98;6.82;;;6.50;99.90;;;;;;5109425;28;20067;-71
2022/12/23 06:14:28;;;;;;;14.73;5.63;;;6.50;99.90;;;;;;5086497;28;20036;-63
2022/12/23 06:16:54;;;;;;;11.85;5.30;;;6.50;99.90;;;;;;5109178;28;20039;-63
2022/12/23 06:19:19;;;;;;;13.63;5.30;;;6.50;99.90;;;;;;5088189;28;20036;-62
2022/12/23 06:21:45;;;;;;;8.90;5.05;;;6.50;99.90;;;;;;5107874;28;20031;-62
2022/12/23 06:24:10;;;;;;;11.27;5.63;;;6.50;99.90;;;;;;5098375;28;20650;-62
2022/12/23 06:26:36;;;;;;;12.73;5.88;;;6.50;99.90;;;;;;5088587;28;20101;-63
2022/12/23 06:29:02;;;;;;;9.35;5.20;;;6.60;99.90;;;;;;5107078;28;20032;-62
2022/12/23 06:31:28;;;;;;;9.02;4.90;;;6.60;99.90;;;;;;5090003;28;20557;-62
2022/12/23 06:33:53;;;;;;;13.73;5.10;;;6.60;99.90;;;;;;5098540;28;20040;-62
2022/12/23 06:36:19;;;;;;;12.23;5.15;;;6.60;99.90;;;;;;5092261;28;20429;-62
2022/12/23 06:38:44;;;;;;;12.25;5.80;;;6.60;99.90;;;;;;5089659;28;20052;-62
2022/12/23 06:41:10;;;;;;;12.27;5.80;;;6.60;99.90;;;;;;5106996;28;20152;-62
2022/12/23 06:43:35;;;;;;;11.40;5.82;;;6.60;99.90;;;;;;5109694;28;20125;-62
2022/12/23 06:46:01;;;;;;;10.80;5.40;;;6.60;99.90;;;;;;5092351;28;20096;-63
2022/12/23 06:48:26;;;;;;;7.70;4.72;;;6.60;99.90;;;;;;5089349;28;20023;-62
2022/12/23 06:50:52;;;;;;;9.15;5.22;;;6.70;99.90;;;;;;5092021;28;20701;-62
2022/12/23 06:53:17;;;;;;;9.65;5.03;;;6.60;99.90;;;;;;5092170;28;20032;-63
2022/12/23 06:55:43;;;;;;;7.78;4.68;;;6.60;99.90;;;;;;5104522;28;20030;-62
2022/12/23 06:58:08;;;;;;;7.10;4.30;;;6.70;99.90;;;;;;5106856;28;20147;-64
2022/12/23 07:00:34;;;;;;;9.40;5.18;;;6.70;99.90;;;;;;5088823;28;20028;-63
2022/12/23 07:03:00;;;;;;;11.25;4.97;;;6.70;99.90;;;;;;5107746;28;20095;-62
2022/12/23 07:05:25;;;;;;;9.65;5.03;;;6.70;99.90;;;;;;5088831;28;20028;-63
2022/12/23 07:07:51;;;;;;;13.02;5.95;;;6.70;99.90;;;;;;5081152;28;20036;-62
2022/12/23 07:10:16;;;;;;;8.48;4.85;;;6.70;99.90;;;;;;5084863;28;20125;-62
2022/12/23 07:12:42;;;;;;;10.10;5.03;;;6.70;99.90;;;;;;5088400;28;20024;-63
2022/12/23 07:15:08;;;;;;;10.38;5.22;;;6.80;99.90;;;;;;5089752;28;20102;-62
2022/12/23 07:17:34;;;;;;;9.20;5.47;;;6.70;99.90;;;;;;5093483;28;20032;-62
2022/12/23 07:19:59;;;;;;;7.40;3.90;;;6.80;99.90;;;;;;5093716;28;20047;-61
2022/12/23 07:22:25;;;;;;;8.10;4.97;;;6.80;99.90;;;;;;5086012;28;20039;-62
2022/12/23 07:24:50;;;;;;;9.10;4.68;;;6.80;99.90;;;;;;5089512;28;20058;-65
2022/12/23 07:27:16;;;;;;;8.88;4.82;;;6.80;99.90;;;;;;5084093;28;20536;-65
2022/12/23 07:29:41;;;;;;;8.63;4.55;;;6.80;99.90;;;;;;5084143;28;20028;-64
2022/12/23 07:32:07;;;;;;;8.40;4.32;;;6.80;99.90;;;;;;5082353;28;20032;-65
2022/12/23 07:34:33;;;;;;;8.73;4.45;;;6.80;99.90;;;;;;5085371;28;20032;-65
2022/12/23 07:36:58;;;;;;;6.15;3.35;;;6.80;99.90;;;;;;5092713;28;20031;-64
2022/12/23 07:39:24;;;;;;;6.78;3.92;;;6.90;99.90;;;;;;5085062;28;20039;-65
2022/12/23 07:41:49;;;;;;;8.20;4.38;;;6.80;99.90;;;;;;5103541;28;20122;-64
2022/12/23 07:44:14;;;;;;;11.27;5.32;;;6.90;99.90;;;;;;5086954;28;20063;-65
2022/12/23 07:46:40;;;;;;;9.05;4.88;;;6.90;99.90;;;;;;5083496;28;20036;-65
2022/12/23 07:49:06;;;;;;;8.65;4.47;;;6.90;99.90;;;;;;5106822;28;20034;-65
2022/12/23 07:51:31;;;;;;;7.32;3.90;;;7.00;99.90;;;;;;5096982;28;20102;-64
2022/12/23 07:53:57;;;;;;;12.63;5.28;;;7.00;99.90;;;;;;5087710;28;20036;-65
2022/12/23 07:56:23;;;;;;;11.63;4.57;;;7.10;99.90;;;;;;5105162;28;20040;-65
2022/12/23 07:58:49;;;;;;;10.32;5.13;;;7.10;99.90;;;;;;5089576;28;20413;-65
2022/12/23 08:01:16;;;;;;;13.57;6.50;;;7.10;99.90;;;;;;5105269;28;20040;-66
2022/12/23 08:03:41;;;;;;;12.05;6.18;;;7.10;99.90;;;;;;5092228;28;20115;-65
2022/12/23 08:06:11;;;;;;;15.32;7.32;;;7.10;99.90;;;;;;5086191;28;20188;-66
2022/12/23 08:08:38;;;;;;;20.38;7.13;;;7.10;99.90;;;;;;5097171;28;20389;-64
2022/12/23 08:11:06;;;;;;;14.85;6.88;;;7.10;99.90;;;;;;5086866;28;20032;-65
2022/12/23 08:13:34;;;;;;;15.15;7.28;;;7.20;99.90;;;;;;5104845;28;20057;-65
2022/12/23 08:16:00;;;;;;;17.48;7.88;;;7.20;99.90;;;;;;5107253;28;20080;-65
2022/12/23 08:18:29;;;;;;;24.42;9.05;;;7.20;99.90;;;;;;5091533;28;20034;-65
2022/12/23 08:20:56;;;;;;;22.48;8.20;;;7.30;99.90;;;;;;5111046;28;20027;-65
2022/12/23 08:23:21;;;;;;;22.70;9.15;;;7.30;99.90;;;;;;5093170;28;20483;-65
2022/12/23 08:25:47;;;;;;;27.48;11.07;;;7.30;99.90;;;;;;5098584;28;20056;-64
2022/12/23 08:28:12;;;;;;;25.23;11.23;;;7.30;99.90;;;;;;5106911;28;20029;-65
2022/12/23 08:30:38;;;;;;;27.67;9.75;;;7.40;99.90;;;;;;5088027;28;20033;-64
2022/12/23 08:33:03;;;;;;;24.42;10.85;;;7.40;99.90;;;;;;5106461;28;20023;-65
2022/12/23 08:35:29;;;;;;;27.15;11.20;;;7.40;99.90;;;;;;5108351;28;20051;-65
2022/12/23 08:37:54;;;;;;;28.33;9.48;;;7.40;99.90;;;;;;5092426;28;20114;-65
2022/12/23 08:40:20;;;;;;;27.05;11.32;;;7.40;99.90;;;;;;5109298;28;20016;-65
2022/12/23 08:42:45;;;;;;;24.80;10.77;;;7.50;99.90;;;;;;5090152;28;20403;-65
2022/12/23 08:45:11;;;;;;;19.05;8.98;;;7.50;99.90;;;;;;5107846;28;20031;-65
2022/12/23 08:47:36;;;;;;;21.88;10.05;;;7.50;99.90;;;;;;5091452;28;20032;-65
2022/12/23 08:50:02;;;;;;;21.70;10.32;;;7.60;99.90;;;;;;5110142;28;20031;-65
2022/12/23 08:52:28;;;;;;;21.85;10.02;;;7.70;99.90;;;;;;5090158;28;20081;-65
2022/12/23 08:54:53;;;;;;;27.20;10.68;;;7.60;99.90;;;;;;5110427;28;20438;-64
2022/12/23 08:57:19;;;;;;;29.25;11.30;;;7.70;99.90;;;;;;5088859;28;20043;-65
2022/12/23 08:59:45;;;;;;;24.60;10.75;;;7.80;99.90;;;;;;5110346;28;20049;-65
2022/12/23 09:02:11;;;;;;;26.85;10.40;;;7.80;99.90;;;;;;5089982;28;20024;-65
2022/12/23 09:04:37;;;;;;;33.22;11.77;;;7.80;99.90;;;;;;5102057;28;20061;-64
2022/12/23 09:07:02;;;;;;;26.17;10.57;;;7.80;99.90;;;;;;5087140;28;20417;-65
2022/12/23 09:09:28;;;;;;;22.65;9.48;;;7.80;99.90;;;;;;5089059;28;20107;-65
2022/12/23 09:11:53;;;;;;;28.52;10.35;;;7.80;99.90;;;;;;5109373;28;20373;-64
2022/12/23 09:14:19;;;;;;;33.97;9.88;;;7.80;99.90;;;;;;5088228;28;20020;-65
2022/12/23 09:16:44;;;;;;;29.35;11.45;;;7.80;99.90;;;;;;5109067;28;20038;-64
2022/12/23 09:19:10;;;;;;;25.83;10.02;;;7.80;99.90;;;;;;5088360;28;20517;-65
2022/12/23 09:21:36;;;;;;;38.28;10.73;;;7.80;99.90;;;;;;5109138;28;20032;-64
2022/12/23 09:24:01;;;;;;;35.35;10.27;;;7.80;99.90;;;;;;5086743;28;20020;-64
2022/12/23 09:26:29;;;;;;;28.38;9.25;;;7.80;99.90;;;;;;5096316;28;20059;-65
2022/12/23 09:28:55;;;;;;;40.38;10.68;;;7.90;99.90;;;;;;5109441;28;20031;-65
2022/12/23 09:31:22;;;;;;;23.90;9.05;;;7.90;99.90;;;;;;5089264;28;20535;-64
2022/12/23 09:33:49;;;;;;;20.40;8.63;;;7.90;99.90;;;;;;5109881;28;20019;-65
2022/12/23 09:36:15;;;;;;;27.55;8.32;;;8.00;99.90;;;;;;5087304;28;20532;-64
2022/12/23 09:38:41;;;;;;;20.83;8.38;;;8.00;99.90;;;;;;5109389;28;20028;-66
2022/12/23 09:41:31;;;;;;;22.15;7.63;;;8.00;99.90;;;;;;5088526;28;20035;-65
2022/12/23 09:44:34;;;;;;;24.08;7.72;;;8.10;99.90;;;;;;5089234;28;20051;-66
2022/12/23 09:47:02;;;;;;;26.45;8.27;;;8.10;99.90;;;;;;5106680;28;20555;-65
2022/12/23 09:49:28;;;;;;;28.45;8.15;;;8.20;99.90;;;;;;5109556;28;20615;-65
2022/12/23 09:52:00;;;;;;;27.88;8.55;;;8.20;99.90;;;;;;5094005;28;20019;-66
2022/12/23 09:54:28;;;;;;;19.55;7.93;;;8.20;99.90;;;;;;5109450;28;20038;-65
2022/12/23 09:56:59;;;;;;;25.85;7.40;;;8.20;99.90;;;;;;5093644;28;20043;-66
2022/12/23 09:59:30;;;;;;;17.42;7.25;;;8.30;99.90;;;;;;5107883;28;20027;-66
2022/12/23 10:02:19;;;;;;;16.52;7.47;;;8.20;99.90;;;;;;5080028;28;20042;-65
2022/12/23 10:05:15;;;;;;;17.13;7.32;;;8.30;99.90;;;;;;5073014;28;20067;-65
2022/12/23 10:08:07;;;;;;;16.83;7.45;;;8.30;99.90;;;;;;5107083;28;20020;-65
2022/12/23 10:10:35;;;;;;;18.98;8.38;;;8.30;99.90;;;;;;5058950;28;20039;-65
2022/12/23 10:13:04;;;;;;;15.73;6.72;;;8.30;99.90;;;;;;5090532;28;20035;-65
2022/12/23 10:15:36;;;;;;;15.15;6.13;;;8.30;99.90;;;;;;5108674;28;20085;-60
2022/12/23 10:18:09;;;;;;;21.73;8.02;;;8.30;99.90;;;;;;5081200;28;20096;-60
2022/12/23 10:20:49;;;;;;;16.63;7.30;;;8.30;99.90;;;;;;5068428;28;20024;-60
2022/12/23 10:23:20;;;;;;;22.27;8.25;;;8.40;99.90;;;;;;5080812;28;20028;-60
2022/12/23 10:25:50;;;;;;;17.25;6.90;;;8.40;99.90;;;;;;5087904;28;20096;-60
2022/12/23 10:28:16;;;;;;;15.35;6.60;;;8.40;99.90;;;;;;5082554;28;20484;-60
2022/12/23 10:30:50;;;;;;;14.98;7.28;;;8.40;99.90;;;;;;5106760;28;20039;-60
2022/12/23 10:33:22;;;;;;;13.82;6.65;;;8.40;99.90;;;;;;5083024;28;20032;-64
2022/12/23 10:36:01;;;;;;;15.02;6.63;;;8.50;99.90;;;;;;5104995;28;20172;-60
2022/12/23 10:38:32;;;;;;;18.75;7.90;;;8.50;99.90;;;;;;5107360;28;20615;-60
2022/12/23 10:41:09;;;;;;;18.15;7.40;;;8.50;99.90;;;;;;5075050;28;20062;-60
2022/12/23 10:44:03;;;;;;;16.20;7.30;;;8.60;99.90;;;;;;5108602;28;20030;-60
2022/12/23 10:46:59;;;;;;;17.58;7.40;;;8.60;99.90;;;;;;5086181;28;20039;-60
2022/12/23 10:49:51;;;;;;;18.35;7.43;;;8.60;99.90;;;;;;5083442;28;20031;-60
2022/12/23 10:52:24;;;;;;;17.30;6.82;;;8.60;99.90;;;;;;5084320;28;20073;-60
2022/12/23 10:54:49;;;;;;;19.77;8.07;;;8.60;99.90;;;;;;5067857;28;20048;-60
2022/12/23 10:57:17;;;;;;;22.75;8.80;;;8.60;99.90;;;;;;5088662;28;20064;-60
2022/12/23 10:59:43;;;;;;;16.25;7.65;;;8.50;99.90;;;;;;5107765;28;20567;-60
2022/12/23 11:02:12;;;;;;;16.13;7.15;;;8.60;99.90;;;;;;5085110;28;20134;-59
2022/12/23 11:04:44;;;;;;;18.73;7.30;;;8.60;99.90;;;;;;5104138;28;20034;-59
2022/12/23 11:07:15;;;;;;;15.52;7.68;;;8.60;99.90;;;;;;5082953;28;20039;-60
2022/12/23 11:09:49;;;;;;;18.45;7.80;;;8.60;99.90;;;;;;5067727;28;20039;-60
2022/12/23 11:12:15;;;;;;;17.83;8.68;;;8.70;99.90;;;;;;5082370;28;20036;-60
2022/12/23 11:14:49;;;;;;;14.27;6.97;;;8.70;99.90;;;;;;5089270;28;20052;-60
2022/12/23 11:17:28;;;;;;;14.18;7.28;;;8.80;99.90;;;;;;5079443;28;20020;-59
2022/12/23 11:20:09;;;;;;;17.77;8.02;;;8.80;99.90;;;;;;5081829;28;20044;-59
2022/12/23 11:22:35;;;;;;;14.27;7.40;;;8.90;99.90;;;;;;5084719;28;20717;-60
2022/12/23 11:25:40;;;;;;;18.95;8.43;;;9.00;99.90;;;;;;5096995;28;20044;-59
2022/12/23 11:28:09;;;;;;;15.50;7.40;;;9.10;99.90;;;;;;5060074;28;20126;-59
2022/12/23 11:30:37;;;;;;;13.45;7.50;;;9.10;99.90;;;;;;5099837;28;20624;-60
2022/12/23 11:33:03;;;;;;;14.85;7.45;;;9.10;99.90;;;;;;5106636;28;20027;-59
2022/12/23 11:35:34;;;;;;;11.35;5.93;;;9.20;99.90;;;;;;5086643;28;20020;-60
2022/12/23 11:38:01;;;;;;;14.23;6.78;;;9.10;99.90;;;;;;5104895;28;20387;-61
2022/12/23 11:40:30;;;;;;;16.17;7.32;;;9.20;99.90;;;;;;5103306;28;20095;-61
2022/12/23 11:43:00;;;;;;;9.98;6.28;;;9.20;99.90;;;;;;5106406;28;20062;-61
2022/12/23 11:45:31;;;;;;;14.75;6.97;;;9.10;99.90;;;;;;5084977;28;20028;-60
2022/12/23 11:47:57;;;;;;;15.27;6.57;;;9.10;99.90;;;;;;5105051;28;20283;-60
2022/12/23 11:50:27;;;;;;;15.85;7.75;;;9.10;99.90;;;;;;5084517;28;20108;-60
2022/12/23 11:53:18;;;;;;;11.63;6.32;;;9.00;99.90;;;;;;5105819;28;20031;-59
2022/12/23 11:56:15;;;;;;;12.80;6.30;;;9.00;99.90;;;;;;5091383;28;20434;-60
2022/12/23 11:58:52;;;;;;;;;;;8.90;99.90;;;;;;5082301;28;20067;-60
2022/12/23 12:01:20;;;;;;;17.30;7.63;;;8.90;99.90;;;;;;5084456;28;19915;-60
2022/12/23 12:03:52;;;;;;;14.88;7.25;;;8.80;99.90;;;;;;5091877;28;20094;-61
2022/12/23 12:06:18;;;;;;;13.88;6.50;;;8.90;99.90;;;;;;5077717;28;20047;-61
2022/12/23 12:08:48;;;;;;;14.63;6.60;;;8.80;99.90;;;;;;5101286;28;20035;-60
2022/12/23 12:11:17;;;;;;;17.75;7.72;;;8.80;99.90;;;;;;5092085;28;20055;-60
2022/12/23 12:13:46;;;;;;;17.80;8.70;;;8.70;99.90;;;;;;5110993;28;20027;-59
2022/12/23 12:16:47;;;;;;;15.40;6.43;;;8.70;99.90;;;;;;5088019;28;20036;-60
2022/12/23 12:19:19;;;;;;;13.57;6.88;;;8.70;99.90;;;;;;5069184;28;20029;-59
2022/12/23 12:21:48;;;;;;;15.02;7.68;;;8.70;99.90;;;;;;5111150;28;20116;-60
2022/12/23 12:24:24;;;;;;;14.85;7.80;;;8.70;99.90;;;;;;5089413;28;20085;-60
2022/12/23 12:26:58;;;;;;;16.65;7.90;;;8.70;99.90;;;;;;5111231;28;20835;-60
2022/12/23 12:29:34;;;;;;;12.30;5.78;;;8.70;99.90;;;;;;5071886;28;20402;-60
2022/12/23 12:32:00;;;;;;;;;;;8.70;99.90;;;;;;5111563;28;20020;-60
2022/12/23 12:34:50;;;;;;;14.93;7.17;;;8.60;99.90;;;;;;5091285;28;19915;-60
2022/12/23 12:37:18;;;;;;;15.30;6.88;;;8.60;99.90;;;;;;5108772;28;20269;-60
2022/12/23 12:40:02;;;;;;;13.70;6.20;;;8.60;99.90;;;;;;5091045;28;20069;-59
2022/12/23 12:42:45;;;;;;;12.65;6.65;;;8.70;99.90;;;;;;5086262;28;20028;-60
2022/12/23 12:45:21;;;;;;;13.45;6.47;;;8.70;99.90;;;;;;5070150;28;20036;-59
2022/12/23 12:48:24;;;;;;;14.80;6.68;;;8.80;99.90;;;;;;5070127;28;20029;-59
2022/12/23 12:51:04;;;;;;;14.38;7.65;;;8.90;99.90;;;;;;5076939;28;20694;-58
2022/12/23 12:53:32;;;;;;;14.27;6.70;;;9.00;99.90;;;;;;5110382;28;20038;-59
2022/12/23 12:56:18;;;;;;;10.95;6.00;;;9.00;99.90;;;;;;5093903;28;20028;-59
2022/12/23 12:58:44;;;;;;;13.02;7.50;;;9.10;99.90;;;;;;5110609;28;20113;-59
2022/12/23 13:01:26;;;;;;;10.48;6.55;;;9.10;99.90;;;;;;5095823;28;20067;-60
2022/12/23 13:04:29;;;;;;;12.95;6.65;;;9.10;99.90;;;;;;5110286;28;20020;-59
2022/12/23 13:07:14;;;;;;;13.68;7.63;;;9.10;99.90;;;;;;5088224;28;20067;-56
2022/12/23 13:10:05;;;;;;;11.32;6.25;;;9.10;99.90;;;;;;5070412;28;20029;-60
2022/12/23 13:12:36;;;;;;;11.60;5.70;;;9.10;99.90;;;;;;5089133;28;20029;-59
2022/12/23 13:15:20;;;;;;;13.32;6.75;;;9.10;99.90;;;;;;5070846;28;20369;-59
2022/12/23 13:17:54;;;;;;;13.57;6.80;;;9.10;99.90;;;;;;5070760;28;20203;-58
2022/12/23 13:20:41;;;;;;;12.98;6.65;;;9.00;99.90;;;;;;5067837;28;20029;-59
2022/12/23 13:23:18;;;;;;;10.48;6.45;;;9.00;99.90;;;;;;5111210;28;20024;-60
2022/12/23 13:25:51;;;;;;;10.38;6.25;;;8.90;99.90;;;;;;5086952;28;20133;-63
2022/12/23 13:28:29;;;;;;;11.85;6.13;;;8.90;99.90;;;;;;5090838;28;20024;-62